createdAt,value
2016-07-30T00:00:03.092Z,8.11
2016-07-30T00:00:11.804Z,8.08
2016-07-30T00:00:20.543Z,8.1
2016-07-30T00:00:29.242Z,8.14
2016-07-30T00:00:38.598Z,8.14
2016-07-30T00:00:47.350Z,8.1
2016-07-30T00:00:56.073Z,8.14
2016-07-30T00:01:04.765Z,8.03
2016-07-30T00:01:13.504Z,8.14
2016-07-30T00:01:22.189Z,8.07
2016-07-30T00:01:30.919Z,8.1
2016-07-30T00:01:39.679Z,8.1
2016-07-30T00:01:48.385Z,8.12
2016-07-30T00:01:57.099Z,8.12
2016-07-30T00:02:05.798Z,8.12
2016-07-30T00:02:14.496Z,8.12
2016-07-30T00:02:23.218Z,8.07
2016-07-30T00:02:31.931Z,8.12
2016-07-30T00:02:40.657Z,8.1
2016-07-30T00:02:49.375Z,8.11
2016-07-30T00:02:58.083Z,8.12
2016-07-30T00:03:06.807Z,8.07
2016-07-30T00:03:15.529Z,8.08
2016-07-30T00:03:24.233Z,8.11
2016-07-30T00:03:32.927Z,8.12
2016-07-30T00:03:41.609Z,8.03
2016-07-30T00:03:50.314Z,8.04
2016-07-30T00:03:59.026Z,8.12
2016-07-30T00:04:07.703Z,8.17
2016-07-30T00:04:16.445Z,8.1
2016-07-30T00:04:25.150Z,8.11
2016-07-30T00:04:33.870Z,8.12
2016-07-30T00:04:42.589Z,8.11
2016-07-30T00:04:51.265Z,8.12
2016-07-30T00:04:59.983Z,8.12
2016-07-30T00:05:08.683Z,8.11
2016-07-30T00:05:17.396Z,8.11
2016-07-30T00:05:26.140Z,8.12
2016-07-30T00:05:34.830Z,8.14
2016-07-30T00:05:43.547Z,8.14
2016-07-30T00:05:52.249Z,8.11
2016-07-30T00:06:00.999Z,8.14
2016-07-30T00:06:10.402Z,8.15
2016-07-30T00:06:19.122Z,8.11
2016-07-30T00:06:28.504Z,8.15
2016-07-30T00:06:37.382Z,8.1
2016-07-30T00:06:46.094Z,8.12
2016-07-30T00:07:03.507Z,8.07
2016-07-30T00:07:12.211Z,8.1
2016-07-30T00:07:20.921Z,8.12
2016-07-30T00:07:29.673Z,8.12
2016-07-30T00:07:38.383Z,8.08
2016-07-30T00:07:47.079Z,8.14
2016-07-30T00:07:55.785Z,8.08
2016-07-30T00:08:04.530Z,8.08
2016-07-30T00:08:13.224Z,8.11
2016-07-30T00:08:21.943Z,8.02
2016-07-30T00:08:30.661Z,8.07
2016-07-30T00:08:39.375Z,8.15
2016-07-30T00:08:48.063Z,8.08
2016-07-30T00:08:56.813Z,8.03
2016-07-30T00:09:05.562Z,8.02
2016-07-30T00:09:14.265Z,8.07
2016-07-30T00:09:22.966Z,8.15
2016-07-30T00:09:31.710Z,8.1
2016-07-30T00:09:40.423Z,7.99
2016-07-30T00:09:49.179Z,7.94
2016-07-30T00:09:57.911Z,8.1
2016-07-30T00:10:06.633Z,7.99
2016-07-30T00:10:15.304Z,8
2016-07-30T00:10:23.985Z,8.03
2016-07-30T00:10:32.687Z,8.03
2016-07-30T00:10:41.401Z,8.02
2016-07-30T00:10:50.134Z,8.03
2016-07-30T00:10:58.885Z,7.97
2016-07-30T00:11:07.591Z,8
2016-07-30T00:11:16.325Z,7.97
2016-07-30T00:11:25.002Z,8.04
2016-07-30T00:11:33.683Z,8
2016-07-30T00:11:42.398Z,7.97
2016-07-30T00:11:51.143Z,8.07
2016-07-30T00:11:59.804Z,8.1
2016-07-30T00:12:08.534Z,7.99
2016-07-30T00:12:17.256Z,8.07
2016-07-30T00:12:25.937Z,8.03
2016-07-30T00:12:34.618Z,8.1
2016-07-30T00:12:44.031Z,7.97
2016-07-30T00:12:52.715Z,8.07
2016-07-30T00:13:01.433Z,8.03
2016-07-30T00:13:10.131Z,7.99
2016-07-30T00:13:18.855Z,7.96
2016-07-30T00:13:27.599Z,7.96
2016-07-30T00:13:36.312Z,7.94
2016-07-30T00:13:45.035Z,7.96
2016-07-30T00:13:53.740Z,7.89
2016-07-30T00:14:03.126Z,7.93
2016-07-30T00:14:11.834Z,7.93
2016-07-30T00:14:20.552Z,8.03
2016-07-30T00:14:29.256Z,8.02
2016-07-30T00:14:37.974Z,8.03
2016-07-30T00:14:46.653Z,7.94
2016-07-30T00:14:55.356Z,8
2016-07-30T00:15:04.058Z,7.94
2016-07-30T00:15:12.756Z,7.99
2016-07-30T00:15:21.448Z,7.99
2016-07-30T00:15:30.163Z,8.03
2016-07-30T00:15:38.859Z,7.97
2016-07-30T00:15:47.611Z,7.96
2016-07-30T00:15:56.288Z,8
2016-07-30T00:16:04.985Z,8.03
2016-07-30T00:16:13.662Z,8.03
2016-07-30T00:16:22.352Z,8.03
2016-07-30T00:16:31.045Z,7.99
2016-07-30T00:16:39.758Z,8.03
2016-07-30T00:16:48.504Z,8.07
2016-07-30T00:16:57.257Z,8
2016-07-30T00:17:05.936Z,8
2016-07-30T00:17:14.623Z,8.07
2016-07-30T00:17:23.301Z,7.94
2016-07-30T00:17:31.997Z,7.97
2016-07-30T00:17:40.700Z,8.07
2016-07-30T00:17:49.408Z,8.02
2016-07-30T00:17:58.116Z,8.08
2016-07-30T00:18:06.787Z,8.02
2016-07-30T00:18:15.465Z,8.04
2016-07-30T00:18:24.173Z,8.14
2016-07-30T00:18:32.910Z,8.08
2016-07-30T00:18:41.634Z,8.11
2016-07-30T00:18:50.359Z,8.02
2016-07-30T00:18:59.086Z,8.11
2016-07-30T00:19:07.781Z,8.17
2016-07-30T00:19:16.497Z,8.12
2016-07-30T00:19:25.237Z,8.08
2016-07-30T00:19:33.943Z,8.08
2016-07-30T00:19:42.679Z,8.08
2016-07-30T00:20:00.171Z,8.11
2016-07-30T00:20:08.885Z,8.11
2016-07-30T00:20:17.584Z,8.11
2016-07-30T00:20:26.292Z,8.14
2016-07-30T00:20:35.039Z,8.12
2016-07-30T00:20:43.752Z,8.02
2016-07-30T00:20:52.454Z,8.12
2016-07-30T00:21:01.170Z,8.12
2016-07-30T00:21:09.904Z,8.14
2016-07-30T00:21:18.632Z,8.12
2016-07-30T00:21:27.349Z,8.14
2016-07-30T00:21:36.065Z,8.14
2016-07-30T00:21:44.789Z,8.11
2016-07-30T00:21:53.506Z,8.14
2016-07-30T00:22:02.225Z,8.15
2016-07-30T00:22:10.962Z,8.08
2016-07-30T00:22:19.643Z,8.1
2016-07-30T00:22:28.393Z,8.12
2016-07-30T00:22:37.088Z,8.14
2016-07-30T00:22:45.777Z,8.15
2016-07-30T00:22:54.478Z,8.12
2016-07-30T00:23:03.181Z,8.1
2016-07-30T00:23:11.888Z,8.12
2016-07-30T00:23:20.586Z,8.11
2016-07-30T00:23:29.307Z,8.17
2016-07-30T00:23:38.704Z,8.14
2016-07-30T00:23:48.093Z,8.15
2016-07-30T00:23:56.762Z,8.02
2016-07-30T00:24:05.487Z,8.15
2016-07-30T00:24:14.211Z,8.07
2016-07-30T00:24:22.960Z,8.08
2016-07-30T00:24:31.666Z,8.07
2016-07-30T00:24:40.390Z,8.12
2016-07-30T00:24:49.093Z,8
2016-07-30T00:24:57.783Z,8.07
2016-07-30T00:25:06.495Z,8.15
2016-07-30T00:25:15.219Z,8.02
2016-07-30T00:25:23.953Z,8.11
2016-07-30T00:25:32.664Z,8.11
2016-07-30T00:25:41.366Z,8.04
2016-07-30T00:25:50.131Z,7.96
2016-07-30T00:25:58.842Z,8.08
2016-07-30T00:26:07.536Z,8.1
2016-07-30T00:26:16.268Z,8.14
2016-07-30T00:26:25.685Z,8.21
2016-07-30T00:26:34.402Z,8.29
2016-07-30T00:26:43.071Z,8.29
2016-07-30T00:26:51.791Z,8.4
2016-07-30T00:27:00.504Z,8.39
2016-07-30T00:27:09.189Z,8.47
2016-07-30T00:27:17.912Z,8.5
2016-07-30T00:27:26.623Z,8.5
2016-07-30T00:27:35.358Z,8.5
2016-07-30T00:27:44.088Z,8.48
2016-07-30T00:27:52.812Z,8.53
2016-07-30T00:28:01.558Z,8.47
2016-07-30T00:28:10.260Z,8.51
2016-07-30T00:28:18.999Z,8.51
2016-07-30T00:28:27.724Z,8.57
2016-07-30T00:28:36.452Z,8.48
2016-07-30T00:28:45.172Z,8.58
2016-07-30T00:28:53.890Z,8.51
2016-07-30T00:29:02.601Z,8.53
2016-07-30T00:29:11.324Z,8.5
2016-07-30T00:29:20.028Z,8.5
2016-07-30T00:29:28.707Z,8.42
2016-07-30T00:29:37.410Z,8.53
2016-07-30T00:29:46.123Z,8.5
2016-07-30T00:29:54.848Z,8.51
2016-07-30T00:30:03.591Z,8.55
2016-07-30T00:30:12.291Z,8.47
2016-07-30T00:30:21.020Z,8.5
2016-07-30T00:30:29.761Z,8.48
2016-07-30T00:30:38.499Z,8.47
2016-07-30T00:30:47.181Z,8.42
2016-07-30T00:30:55.930Z,8.42
2016-07-30T00:31:04.628Z,8.48
2016-07-30T00:31:13.346Z,8.57
2016-07-30T00:31:22.047Z,8.47
2016-07-30T00:31:30.747Z,8.51
2016-07-30T00:31:39.467Z,8.57
2016-07-30T00:31:48.205Z,8.51
2016-07-30T00:31:56.893Z,8.48
2016-07-30T00:32:05.592Z,8.54
2016-07-30T00:32:15.030Z,8.54
2016-07-30T00:32:23.714Z,8.58
2016-07-30T00:32:32.422Z,8.62
2016-07-30T00:32:41.150Z,8.69
2016-07-30T00:32:49.883Z,8.66
2016-07-30T00:32:58.605Z,8.58
2016-07-30T00:33:07.289Z,8.71
2016-07-30T00:33:15.991Z,8.68
2016-07-30T00:33:24.673Z,8.76
2016-07-30T00:33:33.393Z,8.72
2016-07-30T00:33:42.119Z,8.76
2016-07-30T00:33:50.846Z,8.75
2016-07-30T00:33:59.570Z,8.66
2016-07-30T00:34:08.277Z,8.81
2016-07-30T00:34:17.004Z,8.79
2016-07-30T00:34:25.743Z,8.76
2016-07-30T00:34:34.429Z,8.68
2016-07-30T00:34:43.135Z,8.79
2016-07-30T00:34:51.824Z,8.83
2016-07-30T00:35:00.544Z,8.73
2016-07-30T00:35:09.279Z,8.71
2016-07-30T00:35:17.983Z,8.68
2016-07-30T00:35:26.713Z,8.73
2016-07-30T00:35:35.430Z,8.71
2016-07-30T00:35:44.112Z,8.68
2016-07-30T00:35:52.804Z,8.71
2016-07-30T00:36:01.508Z,8.69
2016-07-30T00:36:10.204Z,8.71
2016-07-30T00:36:18.883Z,8.69
2016-07-30T00:36:27.588Z,8.66
2016-07-30T00:36:36.299Z,8.68
2016-07-30T00:36:45.002Z,8.55
2016-07-30T00:36:53.709Z,8.62
2016-07-30T00:37:11.167Z,8.66
2016-07-30T00:37:19.930Z,8.66
2016-07-30T00:37:28.670Z,8.65
2016-07-30T00:37:37.351Z,8.63
2016-07-30T00:37:46.088Z,8.63
2016-07-30T00:37:54.791Z,8.69
2016-07-30T00:38:03.468Z,8.68
2016-07-30T00:38:12.157Z,8.72
2016-07-30T00:38:20.856Z,8.68
2016-07-30T00:38:29.577Z,8.68
2016-07-30T00:38:38.312Z,8.75
2016-07-30T00:38:47.027Z,8.75
2016-07-30T00:38:55.781Z,8.78
2016-07-30T00:39:04.482Z,8.78
2016-07-30T00:39:13.168Z,8.81
2016-07-30T00:39:21.878Z,8.81
2016-07-30T00:39:30.604Z,8.87
2016-07-30T00:39:39.351Z,8.9
2016-07-30T00:39:48.040Z,8.88
2016-07-30T00:39:56.781Z,8.91
2016-07-30T00:40:05.515Z,8.94
2016-07-30T00:40:14.179Z,8.94
2016-07-30T00:40:22.884Z,8.83
2016-07-30T00:40:31.598Z,8.93
2016-07-30T00:40:40.287Z,8.81
2016-07-30T00:40:49.006Z,8.91
2016-07-30T00:40:57.718Z,8.88
2016-07-30T00:41:06.451Z,8.81
2016-07-30T00:41:15.129Z,8.9
2016-07-30T00:41:23.864Z,8.91
2016-07-30T00:41:32.561Z,8.86
2016-07-30T00:41:41.296Z,8.88
2016-07-30T00:41:50.015Z,8.78
2016-07-30T00:41:58.768Z,8.76
2016-07-30T00:42:07.490Z,8.75
2016-07-30T00:42:16.216Z,8.76
2016-07-30T00:42:24.906Z,8.84
2016-07-30T00:42:33.613Z,8.83
2016-07-30T00:42:42.310Z,8.84
2016-07-30T00:42:51.051Z,8.69
2016-07-30T00:42:59.773Z,8.72
2016-07-30T00:43:08.482Z,8.65
2016-07-30T00:43:17.228Z,8.83
2016-07-30T00:43:25.945Z,8.75
2016-07-30T00:43:34.655Z,8.72
2016-07-30T00:43:43.355Z,8.75
2016-07-30T00:43:52.059Z,8.65
2016-07-30T00:44:00.764Z,8.68
2016-07-30T00:44:09.503Z,8.73
2016-07-30T00:44:18.234Z,8.76
2016-07-30T00:44:26.978Z,8.71
2016-07-30T00:44:35.654Z,8.72
2016-07-30T00:44:44.373Z,8.76
2016-07-30T00:44:53.086Z,8.76
2016-07-30T00:45:01.747Z,8.73
2016-07-30T00:45:10.488Z,8.68
2016-07-30T00:45:19.190Z,8.73
2016-07-30T00:45:27.928Z,8.65
2016-07-30T00:45:36.648Z,8.6
2016-07-30T00:45:45.320Z,8.68
2016-07-30T00:45:53.990Z,8.72
2016-07-30T00:46:02.694Z,8.71
2016-07-30T00:46:11.419Z,8.71
2016-07-30T00:46:20.111Z,8.63
2016-07-30T00:46:28.833Z,8.6
2016-07-30T00:46:37.554Z,8.69
2016-07-30T00:46:46.218Z,8.65
2016-07-30T00:46:54.942Z,8.66
2016-07-30T00:47:03.671Z,8.68
2016-07-30T00:47:12.414Z,8.68
2016-07-30T00:47:21.163Z,8.68
2016-07-30T00:47:29.895Z,8.63
2016-07-30T00:47:38.599Z,8.66
2016-07-30T00:47:47.326Z,8.65
2016-07-30T00:47:56.048Z,8.6
2016-07-30T00:48:04.771Z,8.68
2016-07-30T00:48:13.456Z,8.65
2016-07-30T00:48:22.167Z,8.63
2016-07-30T00:48:30.866Z,8.63
2016-07-30T00:48:39.555Z,8.76
2016-07-30T00:48:48.273Z,8.72
2016-07-30T00:48:56.980Z,8.72
2016-07-30T00:49:05.703Z,8.68
2016-07-30T00:49:14.452Z,8.75
2016-07-30T00:49:23.143Z,8.73
2016-07-30T00:49:31.846Z,8.71
2016-07-30T00:49:40.554Z,8.69
2016-07-30T00:49:49.277Z,8.69
2016-07-30T00:49:58.026Z,8.65
2016-07-30T00:50:06.724Z,8.76
2016-07-30T00:50:15.459Z,8.69
2016-07-30T00:50:24.137Z,8.84
2016-07-30T00:50:32.816Z,8.83
2016-07-30T00:50:41.555Z,8.79
2016-07-30T00:50:50.237Z,8.83
2016-07-30T00:50:58.903Z,8.78
2016-07-30T00:51:07.598Z,8.79
2016-07-30T00:51:16.279Z,8.81
2016-07-30T00:51:24.978Z,8.76
2016-07-30T00:51:33.700Z,8.75
2016-07-30T00:51:42.397Z,8.75
2016-07-30T00:51:51.094Z,8.75
2016-07-30T00:51:59.811Z,8.81
2016-07-30T00:52:08.530Z,8.81
2016-07-30T00:52:25.936Z,8.78
2016-07-30T00:52:34.642Z,8.76
2016-07-30T00:52:43.379Z,8.76
2016-07-30T00:52:52.065Z,8.75
2016-07-30T00:53:00.756Z,8.76
2016-07-30T00:53:09.498Z,8.84
2016-07-30T00:53:18.215Z,8.83
2016-07-30T00:53:26.938Z,8.78
2016-07-30T00:53:35.681Z,8.84
2016-07-30T00:53:44.401Z,8.81
2016-07-30T00:53:53.139Z,8.79
2016-07-30T00:54:01.847Z,8.83
2016-07-30T00:54:10.565Z,8.83
2016-07-30T00:54:19.290Z,8.76
2016-07-30T00:54:27.989Z,8.83
2016-07-30T00:54:36.666Z,8.84
2016-07-30T00:54:45.366Z,8.75
2016-07-30T00:54:54.080Z,8.83
2016-07-30T00:55:02.775Z,8.75
2016-07-30T00:55:11.499Z,8.76
2016-07-30T00:55:20.223Z,8.81
2016-07-30T00:55:28.916Z,8.79
2016-07-30T00:55:37.603Z,8.75
2016-07-30T00:55:46.309Z,8.81
2016-07-30T00:55:54.999Z,8.78
2016-07-30T00:56:03.705Z,8.78
2016-07-30T00:56:12.447Z,8.73
2016-07-30T00:56:21.162Z,8.81
2016-07-30T00:56:29.905Z,8.73
2016-07-30T00:56:38.603Z,8.81
2016-07-30T00:56:47.340Z,8.73
2016-07-30T00:56:56.029Z,8.81
2016-07-30T00:57:04.740Z,8.78
2016-07-30T00:57:13.461Z,8.81
2016-07-30T00:57:22.169Z,8.75
2016-07-30T00:57:30.891Z,8.76
2016-07-30T00:57:39.589Z,8.84
2016-07-30T00:57:48.302Z,8.88
2016-07-30T00:57:57.025Z,8.88
2016-07-30T00:58:05.753Z,8.83
2016-07-30T00:58:14.470Z,8.87
2016-07-30T00:58:23.187Z,8.87
2016-07-30T00:58:31.886Z,8.91
2016-07-30T00:58:40.574Z,8.9
2016-07-30T00:58:49.314Z,8.97
2016-07-30T00:58:58.066Z,9.04
2016-07-30T00:59:06.746Z,8.94
2016-07-30T00:59:15.422Z,9.06
2016-07-30T00:59:24.109Z,9.06
2016-07-30T00:59:32.784Z,9.04
2016-07-30T00:59:41.504Z,8.91
2016-07-30T00:59:50.206Z,8.97
2016-07-30T00:59:58.937Z,8.93
2016-07-30T01:00:07.704Z,8.97
2016-07-30T01:00:16.409Z,8.97
2016-07-30T01:00:25.119Z,8.88
2016-07-30T01:00:33.821Z,8.97
2016-07-30T01:00:42.547Z,8.9
2016-07-30T01:00:51.268Z,8.9
2016-07-30T01:00:59.970Z,8.91
2016-07-30T01:01:08.662Z,8.9
2016-07-30T01:01:17.342Z,8.91
2016-07-30T01:01:26.047Z,8.84
2016-07-30T01:01:34.759Z,8.9
2016-07-30T01:01:43.511Z,8.78
2016-07-30T01:01:52.227Z,8.87
2016-07-30T01:02:00.925Z,8.81
2016-07-30T01:02:09.651Z,8.9
2016-07-30T01:02:18.389Z,8.75
2016-07-30T01:02:27.102Z,8.81
2016-07-30T01:02:36.522Z,8.78
2016-07-30T01:02:45.207Z,8.81
2016-07-30T01:02:53.939Z,8.81
2016-07-30T01:03:02.698Z,8.83
2016-07-30T01:03:11.397Z,8.78
2016-07-30T01:03:20.127Z,8.81
2016-07-30T01:03:28.845Z,8.86
2016-07-30T01:03:37.540Z,8.81
2016-07-30T01:03:46.251Z,8.81
2016-07-30T01:03:54.965Z,8.79
2016-07-30T01:04:03.678Z,8.75
2016-07-30T01:04:13.058Z,8.84
2016-07-30T01:04:21.742Z,8.75
2016-07-30T01:04:30.425Z,8.73
2016-07-30T01:04:39.169Z,8.73
2016-07-30T01:04:47.910Z,8.76
2016-07-30T01:04:56.639Z,8.79
2016-07-30T01:05:05.339Z,8.68
2016-07-30T01:05:14.050Z,8.72
2016-07-30T01:05:22.738Z,8.73
2016-07-30T01:05:31.430Z,8.71
2016-07-30T01:05:40.121Z,8.72
2016-07-30T01:05:48.822Z,8.72
2016-07-30T01:05:57.545Z,8.75
2016-07-30T01:06:06.291Z,8.75
2016-07-30T01:06:15.002Z,8.68
2016-07-30T01:06:23.734Z,8.65
2016-07-30T01:06:32.436Z,8.62
2016-07-30T01:06:41.224Z,8.69
2016-07-30T01:06:49.960Z,8.65
2016-07-30T01:06:58.693Z,8.66
2016-07-30T01:07:07.406Z,8.68
2016-07-30T01:07:24.835Z,8.65
2016-07-30T01:07:33.589Z,8.62
2016-07-30T01:07:42.337Z,8.65
2016-07-30T01:07:51.053Z,8.62
2016-07-30T01:07:59.793Z,8.65
2016-07-30T01:08:08.504Z,8.63
2016-07-30T01:08:17.222Z,8.69
2016-07-30T01:08:25.940Z,8.66
2016-07-30T01:08:35.328Z,8.66
2016-07-30T01:08:44.052Z,8.6
2016-07-30T01:08:52.787Z,8.6
2016-07-30T01:09:01.474Z,8.65
2016-07-30T01:09:10.215Z,8.6
2016-07-30T01:09:18.898Z,8.63
2016-07-30T01:09:27.620Z,8.63
2016-07-30T01:09:36.311Z,8.63
2016-07-30T01:09:45.031Z,8.68
2016-07-30T01:09:53.720Z,8.66
2016-07-30T01:10:02.418Z,8.66
2016-07-30T01:10:11.839Z,8.65
2016-07-30T01:10:20.588Z,8.66
2016-07-30T01:10:29.287Z,8.63
2016-07-30T01:10:38.042Z,8.65
2016-07-30T01:10:46.820Z,8.65
2016-07-30T01:10:56.255Z,8.68
2016-07-30T01:11:04.990Z,8.63
2016-07-30T01:11:13.694Z,8.69
2016-07-30T01:11:22.358Z,8.66
2016-07-30T01:11:31.079Z,8.58
2016-07-30T01:11:39.770Z,8.63
2016-07-30T01:11:48.501Z,8.66
2016-07-30T01:11:57.239Z,8.69
2016-07-30T01:12:05.921Z,8.71
2016-07-30T01:12:14.608Z,8.66
2016-07-30T01:12:23.309Z,8.66
2016-07-30T01:12:32.024Z,8.68
2016-07-30T01:12:40.753Z,8.66
2016-07-30T01:12:49.495Z,8.71
2016-07-30T01:12:58.187Z,8.63
2016-07-30T01:13:06.910Z,8.68
2016-07-30T01:13:15.622Z,8.63
2016-07-30T01:13:24.342Z,8.58
2016-07-30T01:13:33.052Z,8.76
2016-07-30T01:13:41.805Z,8.71
2016-07-30T01:13:50.521Z,8.71
2016-07-30T01:13:59.233Z,8.65
2016-07-30T01:14:07.951Z,8.58
2016-07-30T01:14:16.643Z,8.73
2016-07-30T01:14:25.387Z,8.63
2016-07-30T01:14:34.102Z,8.66
2016-07-30T01:14:42.784Z,8.69
2016-07-30T01:14:51.491Z,8.54
2016-07-30T01:15:00.202Z,8.72
2016-07-30T01:15:08.932Z,8.72
2016-07-30T01:15:17.657Z,8.71
2016-07-30T01:15:26.357Z,8.72
2016-07-30T01:15:35.719Z,8.66
2016-07-30T01:15:44.422Z,8.71
2016-07-30T01:15:53.149Z,8.65
2016-07-30T01:16:01.873Z,8.66
2016-07-30T01:16:10.579Z,8.65
2016-07-30T01:16:19.249Z,8.72
2016-07-30T01:16:27.968Z,8.66
2016-07-30T01:16:36.712Z,8.65
2016-07-30T01:16:45.448Z,8.71
2016-07-30T01:16:54.173Z,8.65
2016-07-30T01:17:02.930Z,8.68
2016-07-30T01:17:11.638Z,8.65
2016-07-30T01:17:20.337Z,8.66
2016-07-30T01:17:29.066Z,8.65
2016-07-30T01:17:37.796Z,8.71
2016-07-30T01:17:46.496Z,8.54
2016-07-30T01:17:55.220Z,8.71
2016-07-30T01:18:03.969Z,8.69
2016-07-30T01:18:12.659Z,8.65
2016-07-30T01:18:21.368Z,8.66
2016-07-30T01:18:30.077Z,8.62
2016-07-30T01:18:38.773Z,8.66
2016-07-30T01:18:47.456Z,8.68
2016-07-30T01:18:56.145Z,8.65
2016-07-30T01:19:04.880Z,8.65
2016-07-30T01:19:13.593Z,8.65
2016-07-30T01:19:22.283Z,8.68
2016-07-30T01:19:30.988Z,8.63
2016-07-30T01:19:39.685Z,8.65
2016-07-30T01:19:48.367Z,8.63
2016-07-30T01:19:57.058Z,8.62
2016-07-30T01:20:05.802Z,8.71
2016-07-30T01:20:14.547Z,8.65
2016-07-30T01:20:23.225Z,8.68
2016-07-30T01:20:31.922Z,8.62
2016-07-30T01:20:40.630Z,8.63
2016-07-30T01:20:49.335Z,8.65
2016-07-30T01:20:58.089Z,8.63
2016-07-30T01:21:06.762Z,8.63
2016-07-30T01:21:15.459Z,8.65
2016-07-30T01:21:24.163Z,8.57
2016-07-30T01:21:32.907Z,8.63
2016-07-30T01:21:41.660Z,8.63
2016-07-30T01:21:50.385Z,8.68
2016-07-30T01:21:59.065Z,8.69
2016-07-30T01:22:07.756Z,8.66
2016-07-30T01:22:25.212Z,8.71
2016-07-30T01:22:33.923Z,8.65
2016-07-30T01:22:42.628Z,8.66
2016-07-30T01:22:51.368Z,8.65
2016-07-30T01:23:00.045Z,8.69
2016-07-30T01:23:08.725Z,8.71
2016-07-30T01:23:17.473Z,8.68
2016-07-30T01:23:26.179Z,8.68
2016-07-30T01:23:34.904Z,8.62
2016-07-30T01:23:43.627Z,8.65
2016-07-30T01:23:52.387Z,8.63
2016-07-30T01:24:01.072Z,8.69
2016-07-30T01:24:09.804Z,8.71
2016-07-30T01:24:18.551Z,8.66
2016-07-30T01:24:27.259Z,8.57
2016-07-30T01:24:36.002Z,8.66
2016-07-30T01:24:45.383Z,8.65
2016-07-30T01:24:54.085Z,8.66
2016-07-30T01:25:02.811Z,8.65
2016-07-30T01:25:11.538Z,8.6
2016-07-30T01:25:20.252Z,8.66
2016-07-30T01:25:28.951Z,8.69
2016-07-30T01:25:37.654Z,8.63
2016-07-30T01:25:46.386Z,8.68
2016-07-30T01:25:55.102Z,8.55
2016-07-30T01:26:03.789Z,8.63
2016-07-30T01:26:12.487Z,8.58
2016-07-30T01:26:21.172Z,8.63
2016-07-30T01:26:29.896Z,8.65
2016-07-30T01:26:38.601Z,8.66
2016-07-30T01:26:47.310Z,8.65
2016-07-30T01:26:56.053Z,8.65
2016-07-30T01:27:04.757Z,8.71
2016-07-30T01:27:13.496Z,8.66
2016-07-30T01:27:22.250Z,8.71
2016-07-30T01:27:31.683Z,8.72
2016-07-30T01:27:40.412Z,8.66
2016-07-30T01:27:49.148Z,8.68
2016-07-30T01:27:57.828Z,8.62
2016-07-30T01:28:06.540Z,8.66
2016-07-30T01:28:15.261Z,8.65
2016-07-30T01:28:23.951Z,8.65
2016-07-30T01:28:32.668Z,8.65
2016-07-30T01:28:41.408Z,8.68
2016-07-30T01:28:50.142Z,8.68
2016-07-30T01:28:58.881Z,8.72
2016-07-30T01:29:07.614Z,8.71
2016-07-30T01:29:16.328Z,8.66
2016-07-30T01:29:25.098Z,8.73
2016-07-30T01:29:33.810Z,8.68
2016-07-30T01:29:42.507Z,8.65
2016-07-30T01:29:51.211Z,8.63
2016-07-30T01:29:59.901Z,8.66
2016-07-30T01:30:08.593Z,8.62
2016-07-30T01:30:17.295Z,8.63
2016-07-30T01:30:25.985Z,8.57
2016-07-30T01:30:34.679Z,8.62
2016-07-30T01:30:43.413Z,8.54
2016-07-30T01:30:52.105Z,8.57
2016-07-30T01:31:00.788Z,8.55
2016-07-30T01:31:09.496Z,8.6
2016-07-30T01:31:18.173Z,8.55
2016-07-30T01:31:26.875Z,8.51
2016-07-30T01:31:35.562Z,8.57
2016-07-30T01:31:44.946Z,8.51
2016-07-30T01:31:53.656Z,8.58
2016-07-30T01:32:02.381Z,8.54
2016-07-30T01:32:11.102Z,8.62
2016-07-30T01:32:19.819Z,8.55
2016-07-30T01:32:28.541Z,8.58
2016-07-30T01:32:37.271Z,8.6
2016-07-30T01:32:46.001Z,8.54
2016-07-30T01:32:54.691Z,8.53
2016-07-30T01:33:03.369Z,8.58
2016-07-30T01:33:12.056Z,8.54
2016-07-30T01:33:20.770Z,8.47
2016-07-30T01:33:29.472Z,8.47
2016-07-30T01:33:38.210Z,8.5
2016-07-30T01:33:46.919Z,8.57
2016-07-30T01:33:55.609Z,8.44
2016-07-30T01:34:04.303Z,8.54
2016-07-30T01:34:12.999Z,8.48
2016-07-30T01:34:21.703Z,8.45
2016-07-30T01:34:30.449Z,8.5
2016-07-30T01:34:39.130Z,8.51
2016-07-30T01:34:47.862Z,8.44
2016-07-30T01:34:56.569Z,8.48
2016-07-30T01:35:05.298Z,8.53
2016-07-30T01:35:13.994Z,8.53
2016-07-30T01:35:22.740Z,8.48
2016-07-30T01:35:31.472Z,8.51
2016-07-30T01:35:40.230Z,8.48
2016-07-30T01:35:48.946Z,8.5
2016-07-30T01:35:57.670Z,8.47
2016-07-30T01:36:06.393Z,8.51
2016-07-30T01:36:15.808Z,8.51
2016-07-30T01:36:24.506Z,8.54
2016-07-30T01:36:33.176Z,8.47
2016-07-30T01:36:41.867Z,8.47
2016-07-30T01:36:50.584Z,8.51
2016-07-30T01:36:59.277Z,8.47
2016-07-30T01:37:07.957Z,8.47
2016-07-30T01:37:16.670Z,8.42
2016-07-30T01:37:34.095Z,8.53
2016-07-30T01:37:42.838Z,8.51
2016-07-30T01:37:51.548Z,8.54
2016-07-30T01:38:00.284Z,8.54
2016-07-30T01:38:09.669Z,8.51
2016-07-30T01:38:18.323Z,8.54
2016-07-30T01:38:27.019Z,8.53
2016-07-30T01:38:35.743Z,8.53
2016-07-30T01:38:44.443Z,8.53
2016-07-30T01:38:53.152Z,8.57
2016-07-30T01:39:01.848Z,8.62
2016-07-30T01:39:10.605Z,8.58
2016-07-30T01:39:19.300Z,8.54
2016-07-30T01:39:27.979Z,8.57
2016-07-30T01:39:36.691Z,8.55
2016-07-30T01:39:45.419Z,8.62
2016-07-30T01:39:54.141Z,8.55
2016-07-30T01:40:02.887Z,8.58
2016-07-30T01:40:11.601Z,8.54
2016-07-30T01:40:20.348Z,8.6
2016-07-30T01:40:29.064Z,8.51
2016-07-30T01:40:37.771Z,8.55
2016-07-30T01:40:46.488Z,8.45
2016-07-30T01:40:55.223Z,8.51
2016-07-30T01:41:03.941Z,8.51
2016-07-30T01:41:12.695Z,8.5
2016-07-30T01:41:21.420Z,8.57
2016-07-30T01:41:30.140Z,8.44
2016-07-30T01:41:38.835Z,8.47
2016-07-30T01:41:47.545Z,8.47
2016-07-30T01:41:56.237Z,8.44
2016-07-30T01:42:04.918Z,8.45
2016-07-30T01:42:13.600Z,8.5
2016-07-30T01:42:22.312Z,8.51
2016-07-30T01:42:31.036Z,8.45
2016-07-30T01:42:39.766Z,8.53
2016-07-30T01:42:48.488Z,8.5
2016-07-30T01:42:57.248Z,8.45
2016-07-30T01:43:05.952Z,8.47
2016-07-30T01:43:14.643Z,8.5
2016-07-30T01:43:23.373Z,8.5
2016-07-30T01:43:32.087Z,8.47
2016-07-30T01:43:40.769Z,8.42
2016-07-30T01:43:49.480Z,8.39
2016-07-30T01:43:58.173Z,8.39
2016-07-30T01:44:06.896Z,8.39
2016-07-30T01:44:15.636Z,8.39
2016-07-30T01:44:24.351Z,8.39
2016-07-30T01:44:33.062Z,8.42
2016-07-30T01:44:41.745Z,8.28
2016-07-30T01:44:50.441Z,8.35
2016-07-30T01:44:59.117Z,8.44
2016-07-30T01:45:07.849Z,8.35
2016-07-30T01:45:16.579Z,8.35
2016-07-30T01:45:25.344Z,8.32
2016-07-30T01:45:34.049Z,8.42
2016-07-30T01:45:42.746Z,8.39
2016-07-30T01:45:51.458Z,8.36
2016-07-30T01:46:00.173Z,8.32
2016-07-30T01:46:08.907Z,8.32
2016-07-30T01:46:17.620Z,8.35
2016-07-30T01:46:26.311Z,8.35
2016-07-30T01:46:35.000Z,8.32
2016-07-30T01:46:43.724Z,8.29
2016-07-30T01:46:52.472Z,8.32
2016-07-30T01:47:01.186Z,8.32
2016-07-30T01:47:09.911Z,8.29
2016-07-30T01:47:18.658Z,8.29
2016-07-30T01:47:27.396Z,8.29
2016-07-30T01:47:36.122Z,8.32
2016-07-30T01:47:44.852Z,8.33
2016-07-30T01:47:53.547Z,8.33
2016-07-30T01:48:02.239Z,8.32
2016-07-30T01:48:10.964Z,8.3
2016-07-30T01:48:19.717Z,8.39
2016-07-30T01:48:28.427Z,8.37
2016-07-30T01:48:37.126Z,8.29
2016-07-30T01:48:45.842Z,8.35
2016-07-30T01:48:54.567Z,8.22
2016-07-30T01:49:03.269Z,8.35
2016-07-30T01:49:12.009Z,8.32
2016-07-30T01:49:20.751Z,8.36
2016-07-30T01:49:29.484Z,8.39
2016-07-30T01:49:38.899Z,8.3
2016-07-30T01:49:48.302Z,8.26
2016-07-30T01:49:57.034Z,8.35
2016-07-30T01:50:05.755Z,8.37
2016-07-30T01:50:14.467Z,8.39
2016-07-30T01:50:23.121Z,8.3
2016-07-30T01:50:31.838Z,8.33
2016-07-30T01:50:40.540Z,8.32
2016-07-30T01:50:49.244Z,8.36
2016-07-30T01:50:57.945Z,8.37
2016-07-30T01:51:06.690Z,8.3
2016-07-30T01:51:15.382Z,8.29
2016-07-30T01:51:24.069Z,8.36
2016-07-30T01:51:32.758Z,8.3
2016-07-30T01:51:41.439Z,8.28
2016-07-30T01:51:50.163Z,8.32
2016-07-30T01:51:58.899Z,8.28
2016-07-30T01:52:08.274Z,8.29
2016-07-30T01:52:16.987Z,8.3
2016-07-30T01:52:34.438Z,8.36
2016-07-30T01:52:43.189Z,8.37
2016-07-30T01:52:51.920Z,8.29
2016-07-30T01:53:00.619Z,8.32
2016-07-30T01:53:09.377Z,8.3
2016-07-30T01:53:18.081Z,8.32
2016-07-30T01:53:26.793Z,8.35
2016-07-30T01:53:35.502Z,8.32
2016-07-30T01:53:44.204Z,8.28
2016-07-30T01:53:52.897Z,8.26
2016-07-30T01:54:01.597Z,8.29
2016-07-30T01:54:10.320Z,8.3
2016-07-30T01:54:19.062Z,8.35
2016-07-30T01:54:27.787Z,8.29
2016-07-30T01:54:36.491Z,8.29
2016-07-30T01:54:45.227Z,8.33
2016-07-30T01:54:53.976Z,8.33
2016-07-30T01:55:02.700Z,8.26
2016-07-30T01:55:11.440Z,8.36
2016-07-30T01:55:20.145Z,8.36
2016-07-30T01:55:28.865Z,8.3
2016-07-30T01:55:37.563Z,8.29
2016-07-30T01:55:46.295Z,8.35
2016-07-30T01:55:55.005Z,8.36
2016-07-30T01:56:03.716Z,8.35
2016-07-30T01:56:12.418Z,8.36
2016-07-30T01:56:21.140Z,8.36
2016-07-30T01:56:29.843Z,8.3
2016-07-30T01:56:38.560Z,8.36
2016-07-30T01:56:47.303Z,8.33
2016-07-30T01:56:56.061Z,8.3
2016-07-30T01:57:04.769Z,8.3
2016-07-30T01:57:13.492Z,8.3
2016-07-30T01:57:22.880Z,8.29
2016-07-30T01:57:31.597Z,8.36
2016-07-30T01:57:40.271Z,8.32
2016-07-30T01:57:48.966Z,8.29